sensor_id;sensor_type;location;lat;lon;timestamp;pressure;altitude;pressure_sealevel;temperature;humidity
68075;BME280;54864;52.002;5.468;2023-02-10T00:00:45;103431.91;;;2.80;78.75
68075;BME280;54864;52.002;5.468;2023-02-10T00:01:46;103431.91;;;2.80;78.39
68075;BME280;54864;52.002;5.468;2023-02-10T00:02:49;103421.47;;;2.78;78.49
68075;BME280;54864;52.002;5.468;2023-02-10T00:03:50;103430.19;;;2.80;78.79
68075;BME280;54864;52.002;5.468;2023-02-10T00:04:53;103424.78;;;2.73;78.32
68075;BME280;54864;52.002;5.468;2023-02-10T00:05:55;103427.09;;;2.64;79.24
68075;BME280;54864;52.002;5.468;2023-02-10T00:06:55;103429.75;;;2.65;79.65
68075;BME280;54864;52.002;5.468;2023-02-10T00:07:57;103429.94;;;2.71;79.11
68075;BME280;54864;52.002;5.468;2023-02-10T00:08:59;103428.25;;;2.73;79.36
68075;BME280;54864;52.002;5.468;2023-02-10T00:10:01;103426.44;;;2.71;79.43
68075;BME280;54864;52.002;5.468;2023-02-10T00:11:04;103425.47;;;2.67;79.25
68075;BME280;54864;52.002;5.468;2023-02-10T00:12:06;103419.38;;;2.67;79.22
68075;BME280;54864;52.002;5.468;2023-02-10T00:13:10;103422.03;;;2.68;78.88
68075;BME280;54864;52.002;5.468;2023-02-10T00:14:12;103428.13;;;2.69;79.51
68075;BME280;54864;52.002;5.468;2023-02-10T00:15:13;103424.69;;;2.70;79.57
68075;BME280;54864;52.002;5.468;2023-02-10T00:16:15;103427.31;;;2.71;79.19
68075;BME280;54864;52.002;5.468;2023-02-10T00:17:16;103419.47;;;2.70;79.41
68075;BME280;54864;52.002;5.468;2023-02-10T00:18:20;103436.91;;;2.72;78.60
68075;BME280;54864;52.002;5.468;2023-02-10T00:19:23;103431.59;;;2.69;79.10
68075;BME280;54864;52.002;5.468;2023-02-10T00:20:24;103434.09;;;2.65;79.23
68075;BME280;54864;52.002;5.468;2023-02-10T00:21:25;103432.94;;;2.57;79.16
68075;BME280;54864;52.002;5.468;2023-02-10T00:22:27;103428.47;;;2.52;79.19
68075;BME280;54864;52.002;5.468;2023-02-10T00:23:28;103428.53;;;2.54;79.05
68075;BME280;54864;52.002;5.468;2023-02-10T00:24:30;103430.34;;;2.57;79.16
68075;BME280;54864;52.002;5.468;2023-02-10T00:25:31;103435.13;;;2.43;79.39
68075;BME280;54864;52.002;5.468;2023-02-10T00:26:33;103431.22;;;2.29;79.96
68075;BME280;54864;52.002;5.468;2023-02-10T00:27:33;103430.66;;;2.39;79.71
68075;BME280;54864;52.002;5.468;2023-02-10T00:28:35;103432.53;;;2.43;79.56
68075;BME280;54864;52.002;5.468;2023-02-10T00:29:36;103430.81;;;2.43;79.37
68075;BME280;54864;52.002;5.468;2023-02-10T00:30:39;103424.72;;;2.43;78.95
68075;BME280;54864;52.002;5.468;2023-02-10T00:31:40;103429.13;;;2.45;78.71
68075;BME280;54864;52.002;5.468;2023-02-10T00:32:42;103426.34;;;2.39;78.50
68075;BME280;54864;52.002;5.468;2023-02-10T00:33:44;103431.56;;;2.39;78.80
68075;BME280;54864;52.002;5.468;2023-02-10T00:34:46;103433.22;;;2.37;78.68
68075;BME280;54864;52.002;5.468;2023-02-10T00:35:48;103423.47;;;2.30;78.84
68075;BME280;54864;52.002;5.468;2023-02-10T00:36:49;103426.03;;;2.29;78.84
68075;BME280;54864;52.002;5.468;2023-02-10T00:37:51;103432.06;;;2.28;78.72
68075;BME280;54864;52.002;5.468;2023-02-10T00:38:52;103427.59;;;2.23;79.08
68075;BME280;54864;52.002;5.468;2023-02-10T00:39:54;103431.97;;;2.25;78.86
68075;BME280;54864;52.002;5.468;2023-02-10T00:40:55;103440.56;;;2.22;79.00
68075;BME280;54864;52.002;5.468;2023-02-10T00:41:57;103434.53;;;2.23;78.43
68075;BME280;54864;52.002;5.468;2023-02-10T00:42:58;103430.94;;;2.19;78.61
68075;BME280;54864;52.002;5.468;2023-02-10T00:43:59;103422.06;;;2.13;78.62
68075;BME280;54864;52.002;5.468;2023-02-10T00:45:01;103428.16;;;2.13;78.60
68075;BME280;54864;52.002;5.468;2023-02-10T00:46:02;103428.91;;;2.09;78.63
68075;BME280;54864;52.002;5.468;2023-02-10T00:47:04;103437.38;;;2.04;78.86
68075;BME280;54864;52.002;5.468;2023-02-10T00:48:05;103437.25;;;1.99;78.96
68075;BME280;54864;52.002;5.468;2023-02-10T00:49:09;103436.47;;;2.02;79.08
68075;BME280;54864;52.002;5.468;2023-02-10T00:50:10;103431.25;;;2.02;78.55
68075;BME280;54864;52.002;5.468;2023-02-10T00:51:12;103432.09;;;2.01;78.78
68075;BME280;54864;52.002;5.468;2023-02-10T00:52:13;103434.63;;;1.99;78.78
68075;BME280;54864;52.002;5.468;2023-02-10T00:53:15;103439.75;;;1.96;78.45
68075;BME280;54864;52.002;5.468;2023-02-10T00:54:16;103442.44;;;1.99;78.63
68075;BME280;54864;52.002;5.468;2023-02-10T00:55:17;103429.38;;;1.98;78.24
68075;BME280;54864;52.002;5.468;2023-02-10T00:56:19;103443.34;;;2.00;78.33
68075;BME280;54864;52.002;5.468;2023-02-10T00:57:21;103435.38;;;1.95;78.08
68075;BME280;54864;52.002;5.468;2023-02-10T00:58:25;103441.34;;;1.92;77.99
68075;BME280;54864;52.002;5.468;2023-02-10T00:59:27;103442.06;;;1.88;77.94
68075;BME280;54864;52.002;5.468;2023-02-10T01:00:27;103442.91;;;1.87;78.47
68075;BME280;54864;52.002;5.468;2023-02-10T01:01:29;103443.75;;;1.86;78.38
68075;BME280;54864;52.002;5.468;2023-02-10T01:02:30;103442.81;;;1.84;78.52
68075;BME280;54864;52.002;5.468;2023-02-10T01:03:32;103448.84;;;1.83;78.61
68075;BME280;54864;52.002;5.468;2023-02-10T01:04:34;103449.66;;;1.82;78.83
68075;BME280;54864;52.002;5.468;2023-02-10T01:05:36;103446.13;;;1.80;78.76
68075;BME280;54864;52.002;5.468;2023-02-10T01:06:37;103455.59;;;1.78;78.67
68075;BME280;54864;52.002;5.468;2023-02-10T01:07:38;103441.72;;;1.78;78.73
68075;BME280;54864;52.002;5.468;2023-02-10T01:08:39;103443.59;;;1.82;78.72
68075;BME280;54864;52.002;5.468;2023-02-10T01:09:41;103434.94;;;1.83;78.17
68075;BME280;54864;52.002;5.468;2023-02-10T01:10:42;103447.16;;;1.85;78.33
68075;BME280;54864;52.002;5.468;2023-02-10T01:11:44;103444.53;;;1.84;78.13
68075;BME280;54864;52.002;5.468;2023-02-10T01:12:44;103446.03;;;1.77;78.37
68075;BME280;54864;52.002;5.468;2023-02-10T01:13:46;103455.59;;;1.78;78.77
68075;BME280;54864;52.002;5.468;2023-02-10T01:14:47;103456.44;;;1.77;78.72
68075;BME280;54864;52.002;5.468;2023-02-10T01:15:50;103452.06;;;1.76;78.77
68075;BME280;54864;52.002;5.468;2023-02-10T01:16:50;103455.34;;;1.71;79.00
68075;BME280;54864;52.002;5.468;2023-02-10T01:17:52;103454.31;;;1.66;79.09
68075;BME280;54864;52.002;5.468;2023-02-10T01:18:53;103456.09;;;1.67;79.33
68075;BME280;54864;52.002;5.468;2023-02-10T01:19:56;103459.47;;;1.64;79.50
68075;BME280;54864;52.002;5.468;2023-02-10T01:20:57;103452.59;;;1.66;79.54
68075;BME280;54864;52.002;5.468;2023-02-10T01:21:59;103463.16;;;1.71;79.28
68075;BME280;54864;52.002;5.468;2023-02-10T01:23:02;103456.28;;;1.73;78.98
68075;BME280;54864;52.002;5.468;2023-02-10T01:24:04;103449.13;;;1.66;79.15
68075;BME280;54864;52.002;5.468;2023-02-10T01:25:05;103453.75;;;1.74;79.29
68075;BME280;54864;52.002;5.468;2023-02-10T01:26:09;103458.09;;;1.75;78.90
68075;BME280;54864;52.002;5.468;2023-02-10T01:27:09;103458.06;;;1.74;79.12
68075;BME280;54864;52.002;5.468;2023-02-10T01:28:11;103460.66;;;1.74;79.20
68075;BME280;54864;52.002;5.468;2023-02-10T01:29:12;103458.06;;;1.74;79.29
68075;BME280;54864;52.002;5.468;2023-02-10T01:30:13;103456.19;;;1.70;79.29
68075;BME280;54864;52.002;5.468;2023-02-10T01:31:18;103454.53;;;1.72;79.35
68075;BME280;54864;52.002;5.468;2023-02-10T01:32:20;103459.81;;;1.75;79.27
68075;BME280;54864;52.002;5.468;2023-02-10T01:33:20;103457.00;;;1.69;79.02
68075;BME280;54864;52.002;5.468;2023-02-10T01:34:22;103462.22;;;1.69;79.30
68075;BME280;54864;52.002;5.468;2023-02-10T01:35:24;103462.22;;;1.69;79.10
68075;BME280;54864;52.002;5.468;2023-02-10T01:36:26;103453.47;;;1.67;79.50
68075;BME280;54864;52.002;5.468;2023-02-10T01:37:27;103465.59;;;1.66;79.27
68075;BME280;54864;52.002;5.468;2023-02-10T01:38:28;103454.09;;;1.59;79.60
68075;BME280;54864;52.002;5.468;2023-02-10T01:39:29;103462.69;;;1.57;79.53
68075;BME280;54864;52.002;5.468;2023-02-10T01:40:31;103450.63;;;1.59;80.00
68075;BME280;54864;52.002;5.468;2023-02-10T01:41:34;103443.72;;;1.59;80.01
68075;BME280;54864;52.002;5.468;2023-02-10T01:42:36;103448.84;;;1.58;80.00
68075;BME280;54864;52.002;5.468;2023-02-10T01:44:00;103444.78;;;1.66;80.11
68075;BME280;54864;52.002;5.468;2023-02-10T01:45:14;103451.72;;;1.66;79.76
68075;BME280;54864;52.002;5.468;2023-02-10T01:46:15;103449.13;;;1.66;79.90
68075;BME280;54864;52.002;5.468;2023-02-10T01:47:17;103442.19;;;1.66;80.04
68075;BME280;54864;52.002;5.468;2023-02-10T01:48:18;103441.38;;;1.67;79.74
68075;BME280;54864;52.002;5.468;2023-02-10T01:49:22;103444.22;;;1.75;79.79
68075;BME280;54864;52.002;5.468;2023-02-10T01:50:27;103446.66;;;1.70;79.79
68075;BME280;54864;52.002;5.468;2023-02-10T01:51:37;103447.81;;;1.78;79.70
68075;BME280;54864;52.002;5.468;2023-02-10T01:52:39;103446.13;;;1.80;79.50
68075;BME280;54864;52.002;5.468;2023-02-10T01:53:42;103441.56;;;1.73;79.93
68075;BME280;54864;52.002;5.468;2023-02-10T01:54:46;103443.38;;;1.76;79.94
68075;BME280;54864;52.002;5.468;2023-02-10T01:55:51;103451.34;;;1.80;79.76
68075;BME280;54864;52.002;5.468;2023-02-10T01:56:53;103446.28;;;1.85;79.68
68075;BME280;54864;52.002;5.468;2023-02-10T01:57:55;103450.66;;;1.86;79.47
68075;BME280;54864;52.002;5.468;2023-02-10T01:58:57;103445.34;;;1.83;79.72
68075;BME280;54864;52.002;5.468;2023-02-10T01:59:58;103448.00;;;1.84;79.95
68075;BME280;54864;52.002;5.468;2023-02-10T02:01:01;103457.47;;;1.82;79.87
68075;BME280;54864;52.002;5.468;2023-02-10T02:02:04;103456.50;;;1.79;80.07
68075;BME280;54864;52.002;5.468;2023-02-10T02:03:08;103455.75;;;1.83;79.93
68075;BME280;54864;52.002;5.468;2023-02-10T02:04:10;103454.88;;;1.82;79.76
68075;BME280;54864;52.002;5.468;2023-02-10T02:05:31;103451.53;;;1.86;79.83
68075;BME280;54864;52.002;5.468;2023-02-10T02:06:34;103453.47;;;1.92;79.78
68075;BME280;54864;52.002;5.468;2023-02-10T02:07:36;103451.00;;;1.95;79.84
68075;BME280;54864;52.002;5.468;2023-02-10T02:08:38;103453.41;;;1.90;79.92
68075;BME280;54864;52.002;5.468;2023-02-10T02:09:39;103457.78;;;1.91;80.25
68075;BME280;54864;52.002;5.468;2023-02-10T02:11:01;103457.22;;;2.00;80.13
68075;BME280;54864;52.002;5.468;2023-02-10T02:12:08;103459.78;;;1.99;80.02
68075;BME280;54864;52.002;5.468;2023-02-10T02:13:25;103464.03;;;1.97;80.00
68075;BME280;54864;52.002;5.468;2023-02-10T02:14:33;103461.59;;;2.01;79.93
68075;BME280;54864;52.002;5.468;2023-02-10T02:15:41;103467.69;;;2.02;79.88
68075;BME280;54864;52.002;5.468;2023-02-10T02:16:56;103464.28;;;2.04;80.18
68075;BME280;54864;52.002;5.468;2023-02-10T02:18:03;103467.03;;;2.09;79.90
68075;BME280;54864;52.002;5.468;2023-02-10T02:19:21;103470.63;;;2.12;80.08
68075;BME280;54864;52.002;5.468;2023-02-10T02:21:08;103471.50;;;2.13;80.07
68075;BME280;54864;52.002;5.468;2023-02-10T02:22:35;103477.50;;;2.10;80.24
68075;BME280;54864;52.002;5.468;2023-02-10T02:23:55;103471.31;;;2.07;80.56
68075;BME280;54864;52.002;5.468;2023-02-10T02:25:19;103472.97;;;2.05;80.80
68075;BME280;54864;52.002;5.468;2023-02-10T02:26:40;103470.38;;;2.05;80.68
68075;BME280;54864;52.002;5.468;2023-02-10T02:27:53;103463.59;;;2.10;80.04
68075;BME280;54864;52.002;5.468;2023-02-10T02:29:13;103459.38;;;2.13;80.53
68075;BME280;54864;52.002;5.468;2023-02-10T02:31:58;103454.22;;;2.15;80.33
68075;BME280;54864;52.002;5.468;2023-02-10T02:33:02;103453.38;;;2.16;80.49
68075;BME280;54864;52.002;5.468;2023-02-10T02:34:08;103454.31;;;2.18;79.99
68075;BME280;54864;52.002;5.468;2023-02-10T02:35:14;103452.50;;;2.15;80.10
68075;BME280;54864;52.002;5.468;2023-02-10T02:36:19;103454.31;;;2.18;80.35
68075;BME280;54864;52.002;5.468;2023-02-10T02:37:23;103456.09;;;2.19;79.71
68075;BME280;54864;52.002;5.468;2023-02-10T02:38:27;103452.50;;;2.15;80.23
68075;BME280;54864;52.002;5.468;2023-02-10T02:39:29;103462.88;;;2.14;79.88
68075;BME280;54864;52.002;5.468;2023-02-10T02:40:30;103454.91;;;2.09;79.98
68075;BME280;54864;52.002;5.468;2023-02-10T02:41:33;103457.66;;;2.14;80.19
68075;BME280;54864;52.002;5.468;2023-02-10T02:42:34;103462.88;;;2.14;79.70
68075;BME280;54864;52.002;5.468;2023-02-10T02:43:38;103457.66;;;2.14;79.81
68075;BME280;54864;52.002;5.468;2023-02-10T02:44:39;103458.50;;;2.13;79.45
68075;BME280;54864;52.002;5.468;2023-02-10T02:45:49;103464.63;;;2.15;79.14
68075;BME280;54864;52.002;5.468;2023-02-10T02:46:58;103463.56;;;2.08;79.59
68075;BME280;54864;52.002;5.468;2023-02-10T02:48:12;103460.81;;;2.04;79.66
68075;BME280;54864;52.002;5.468;2023-02-10T02:49:26;103467.03;;;2.09;79.60
68075;BME280;54864;52.002;5.468;2023-02-10T02:50:34;103457.38;;;2.05;79.44
68075;BME280;54864;52.002;5.468;2023-02-10T02:51:40;103472.25;;;2.09;79.23
68075;BME280;54864;52.002;5.468;2023-02-10T02:52:50;103464.09;;;1.98;79.39
68075;BME280;54864;52.002;5.468;2023-02-10T02:53:59;103466.50;;;1.94;79.65
68075;BME280;54864;52.002;5.468;2023-02-10T02:55:05;103464.78;;;1.94;79.48
68075;BME280;54864;52.002;5.468;2023-02-10T02:56:17;103460.47;;;1.95;79.51
68075;BME280;54864;52.002;5.468;2023-02-10T02:57:27;103467.19;;;1.88;79.57
68075;BME280;54864;52.002;5.468;2023-02-10T02:58:37;103474.25;;;1.92;79.43
68075;BME280;54864;52.002;5.468;2023-02-10T02:59:47;103469.25;;;1.97;79.07
68075;BME280;54864;52.002;5.468;2023-02-10T03:00:52;103479.59;;;1.95;79.15
68075;BME280;54864;52.002;5.468;2023-02-10T03:01:56;103495.25;;;1.97;79.08
68075;BME280;54864;52.002;5.468;2023-02-10T03:03:00;103479.66;;;1.97;78.97
68075;BME280;54864;52.002;5.468;2023-02-10T03:04:02;103487.28;;;1.92;78.72
68075;BME280;54864;52.002;5.468;2023-02-10T03:05:04;103477.44;;;1.83;78.53
68075;BME280;54864;52.002;5.468;2023-02-10T03:06:04;103491.34;;;1.84;78.83
68075;BME280;54864;52.002;5.468;2023-02-10T03:07:06;103489.66;;;1.86;78.50
68075;BME280;54864;52.002;5.468;2023-02-10T03:08:07;103483.44;;;1.81;78.57
68075;BME280;54864;52.002;5.468;2023-02-10T03:09:09;103472.78;;;1.73;78.82
68075;BME280;54864;52.002;5.468;2023-02-10T03:10:10;103484.31;;;1.81;79.08
68075;BME280;54864;52.002;5.468;2023-02-10T03:11:12;103473.28;;;1.88;78.55
68075;BME280;54864;52.002;5.468;2023-02-10T03:12:13;103480.03;;;1.83;78.54
68075;BME280;54864;52.002;5.468;2023-02-10T03:13:15;103472.97;;;1.79;78.79
68075;BME280;54864;52.002;5.468;2023-02-10T03:14:15;103474.50;;;1.73;79.15
68075;BME280;54864;52.002;5.468;2023-02-10T03:15:17;103477.28;;;1.79;79.21
68075;BME280;54864;52.002;5.468;2023-02-10T03:16:18;103476.47;;;1.80;79.13
68075;BME280;54864;52.002;5.468;2023-02-10T03:17:21;103477.13;;;1.74;78.97
68075;BME280;54864;52.002;5.468;2023-02-10T03:18:22;103469.72;;;1.59;79.80
68075;BME280;54864;52.002;5.468;2023-02-10T03:19:23;103470.06;;;1.70;79.81
68075;BME280;54864;52.002;5.468;2023-02-10T03:20:24;103474.38;;;1.70;79.53
68075;BME280;54864;52.002;5.468;2023-02-10T03:21:26;103470.03;;;1.69;80.11
68075;BME280;54864;52.002;5.468;2023-02-10T03:22:27;103478.66;;;1.68;79.87
68075;BME280;54864;52.002;5.468;2023-02-10T03:23:28;103472.66;;;1.70;79.69
68075;BME280;54864;52.002;5.468;2023-02-10T03:24:29;103482.25;;;1.71;79.98
68075;BME280;54864;52.002;5.468;2023-02-10T03:25:31;103475.78;;;1.60;79.53
68075;BME280;54864;52.002;5.468;2023-02-10T03:26:32;103482.81;;;1.63;79.95
68075;BME280;54864;52.002;5.468;2023-02-10T03:27:34;103480.22;;;1.63;80.21
68075;BME280;54864;52.002;5.468;2023-02-10T03:28:34;103478.66;;;1.68;79.97
68075;BME280;54864;52.002;5.468;2023-02-10T03:29:36;103481.41;;;1.72;79.76
68075;BME280;54864;52.002;5.468;2023-02-10T03:30:37;103477.81;;;1.69;79.77
68075;BME280;54864;52.002;5.468;2023-02-10T03:31:39;103483.13;;;1.72;79.60
68075;BME280;54864;52.002;5.468;2023-02-10T03:32:45;103483.06;;;1.70;79.89
68075;BME280;54864;52.002;5.468;2023-02-10T03:33:49;103482.03;;;1.65;79.95
68075;BME280;54864;52.002;5.468;2023-02-10T03:34:49;103481.41;;;1.72;79.92
68075;BME280;54864;52.002;5.468;2023-02-10T03:35:51;103478.81;;;1.72;79.85
68075;BME280;54864;52.002;5.468;2023-02-10T03:36:52;103474.28;;;1.67;80.24
68075;BME280;54864;52.002;5.468;2023-02-10T03:37:54;103470.94;;;1.71;79.76
68075;BME280;54864;52.002;5.468;2023-02-10T03:38:54;103481.47;;;1.74;79.56
68075;BME280;54864;52.002;5.468;2023-02-10T03:39:56;103479.59;;;1.70;79.38
68075;BME280;54864;52.002;5.468;2023-02-10T03:40:57;103481.25;;;1.68;79.77
68075;BME280;54864;52.002;5.468;2023-02-10T03:41:58;103488.44;;;1.75;79.66
68075;BME280;54864;52.002;5.468;2023-02-10T03:42:59;103484.06;;;1.74;79.46
68075;BME280;54864;52.002;5.468;2023-02-10T03:44:01;103491.06;;;1.76;79.27
68075;BME280;54864;52.002;5.468;2023-02-10T03:45:02;103489.47;;;1.80;78.94
68075;BME280;54864;52.002;5.468;2023-02-10T03:46:05;103490.94;;;1.72;78.96
68075;BME280;54864;52.002;5.468;2023-02-10T03:47:05;103482.03;;;1.65;79.41
68075;BME280;54864;52.002;5.468;2023-02-10T03:48:09;103486.66;;;1.74;79.14
68075;BME280;54864;52.002;5.468;2023-02-10T03:49:10;103492.53;;;1.68;79.15
68075;BME280;54864;52.002;5.468;2023-02-10T03:50:11;103487.81;;;1.56;79.60
68075;BME280;54864;52.002;5.468;2023-02-10T03:51:12;103488.06;;;1.64;79.57
68075;BME280;54864;52.002;5.468;2023-02-10T03:52:14;103478.56;;;1.65;79.52
68075;BME280;54864;52.002;5.468;2023-02-10T03:53:15;103477.97;;;1.73;79.07
68075;BME280;54864;52.002;5.468;2023-02-10T03:54:17;103475.94;;;1.65;79.28
68075;BME280;54864;52.002;5.468;2023-02-10T03:55:17;103474.28;;;1.67;79.39
68075;BME280;54864;52.002;5.468;2023-02-10T03:56:19;103475.13;;;1.66;79.25
68075;BME280;54864;52.002;5.468;2023-02-10T03:57:21;103481.88;;;1.61;79.45
68075;BME280;54864;52.002;5.468;2023-02-10T03:58:21;103478.38;;;1.60;79.55
68075;BME280;54864;52.002;5.468;2023-02-10T03:59:23;103478.50;;;1.63;79.30
68075;BME280;54864;52.002;5.468;2023-02-10T04:00:24;103478.59;;;1.66;79.23
68075;BME280;54864;52.002;5.468;2023-02-10T04:01:26;103483.91;;;1.69;79.01
68075;BME280;54864;52.002;5.468;2023-02-10T04:02:27;103481.19;;;1.66;79.21
68075;BME280;54864;52.002;5.468;2023-02-10T04:03:30;103483.44;;;1.55;79.34
68075;BME280;54864;52.002;5.468;2023-02-10T04:04:31;103486.53;;;1.45;80.01
68075;BME280;54864;52.002;5.468;2023-02-10T04:05:33;103486.81;;;1.53;79.92
68075;BME280;54864;52.002;5.468;2023-02-10T04:06:33;103480.09;;;1.59;79.91
68075;BME280;54864;52.002;5.468;2023-02-10T04:07:35;103488.63;;;1.55;79.77
68075;BME280;54864;52.002;5.468;2023-02-10T04:08:36;103492.00;;;1.53;79.90
68075;BME280;54864;52.002;5.468;2023-02-10T04:09:38;103489.53;;;1.56;80.05
68075;BME280;54864;52.002;5.468;2023-02-10T04:10:39;103485.25;;;1.58;79.91
68075;BME280;54864;52.002;5.468;2023-02-10T04:11:40;103477.50;;;1.59;80.00
68075;BME280;54864;52.002;5.468;2023-02-10T04:12:41;103486.19;;;1.60;79.93
68075;BME280;54864;52.002;5.468;2023-02-10T04:13:43;103485.41;;;1.63;80.01
68075;BME280;54864;52.002;5.468;2023-02-10T04:14:44;103482.81;;;1.63;79.55
68075;BME280;54864;52.002;5.468;2023-02-10T04:15:46;103486.13;;;1.58;79.83
68075;BME280;54864;52.002;5.468;2023-02-10T04:16:48;103483.59;;;1.60;79.99
68075;BME280;54864;52.002;5.468;2023-02-10T04:17:50;103485.19;;;1.56;79.83
68075;BME280;54864;52.002;5.468;2023-02-10T04:18:52;103494.00;;;1.60;79.97
68075;BME280;54864;52.002;5.468;2023-02-10T04:19:54;103482.59;;;1.56;79.68
68075;BME280;54864;52.002;5.468;2023-02-10T04:20:55;103498.34;;;1.61;79.74
68075;BME280;54864;52.002;5.468;2023-02-10T04:21:57;103492.22;;;1.59;79.65
68075;BME280;54864;52.002;5.468;2023-02-10T04:22:57;103487.22;;;1.65;79.41
68075;BME280;54864;52.002;5.468;2023-02-10T04:23:59;103490.00;;;1.70;79.33
68075;BME280;54864;52.002;5.468;2023-02-10T04:25:04;103499.56;;;1.71;78.99
68075;BME280;54864;52.002;5.468;2023-02-10T04:26:06;103495.03;;;1.65;79.43
68075;BME280;54864;52.002;5.468;2023-02-10T04:27:07;103495.03;;;1.65;79.41
68075;BME280;54864;52.002;5.468;2023-02-10T04:28:08;103489.84;;;1.65;79.34
68075;BME280;54864;52.002;5.468;2023-02-10T04:29:09;103495.09;;;1.67;79.17
68075;BME280;54864;52.002;5.468;2023-02-10T04:30:11;103489.94;;;1.68;79.08
68075;BME280;54864;52.002;5.468;2023-02-10T04:31:12;103489.06;;;1.68;79.02
68075;BME280;54864;52.002;5.468;2023-02-10T04:32:13;103489.84;;;1.65;79.26
68075;BME280;54864;52.002;5.468;2023-02-10T04:33:14;103487.13;;;1.62;79.20
68075;BME280;54864;52.002;5.468;2023-02-10T04:34:17;103491.50;;;1.63;78.98
68075;BME280;54864;52.002;5.468;2023-02-10T04:35:18;103493.06;;;1.58;79.18
68075;BME280;54864;52.002;5.468;2023-02-10T04:36:20;103485.88;;;1.51;79.18
68075;BME280;54864;52.002;5.468;2023-02-10T04:37:22;103482.38;;;1.50;79.27
68075;BME280;54864;52.002;5.468;2023-02-10T04:38:23;103493.09;;;1.59;79.16
68075;BME280;54864;52.002;5.468;2023-02-10T04:39:25;103488.91;;;1.63;79.00
68075;BME280;54864;52.002;5.468;2023-02-10T04:40:26;103488.00;;;1.63;78.56
68075;BME280;54864;52.002;5.468;2023-02-10T04:41:28;103493.16;;;1.61;78.68
68075;BME280;54864;52.002;5.468;2023-02-10T04:42:29;103499.03;;;1.55;78.96
68075;BME280;54864;52.002;5.468;2023-02-10T04:43:30;103500.75;;;1.55;78.94
68075;BME280;54864;52.002;5.468;2023-02-10T04:44:32;103508.66;;;1.58;78.80
68075;BME280;54864;52.002;5.468;2023-02-10T04:45:32;103509.69;;;1.63;78.69
68075;BME280;54864;52.002;5.468;2023-02-10T04:46:34;103509.47;;;1.57;78.30
68075;BME280;54864;52.002;5.468;2023-02-10T04:47:35;103504.22;;;1.55;78.86
68075;BME280;54864;52.002;5.468;2023-02-10T04:48:37;103516.28;;;1.53;78.79
68075;BME280;54864;52.002;5.468;2023-02-10T04:49:39;103514.56;;;1.54;78.52
68075;BME280;54864;52.002;5.468;2023-02-10T04:50:41;103497.78;;;1.44;78.86
68075;BME280;54864;52.002;5.468;2023-02-10T04:51:42;103518.22;;;1.59;78.64
68075;BME280;54864;52.002;5.468;2023-02-10T04:52:44;103506.81;;;1.55;78.46
68075;BME280;54864;52.002;5.468;2023-02-10T04:53:45;103504.91;;;1.50;78.46
68075;BME280;54864;52.002;5.468;2023-02-10T04:54:48;103512.59;;;1.47;78.80
68075;BME280;54864;52.002;5.468;2023-02-10T04:55:49;103510.97;;;1.50;78.78
68075;BME280;54864;52.002;5.468;2023-02-10T04:56:50;103519.00;;;1.56;78.76
68075;BME280;54864;52.002;5.468;2023-02-10T04:57:52;103515.50;;;1.56;78.24
68075;BME280;54864;52.002;5.468;2023-02-10T04:58:53;103510.25;;;1.54;78.15
68075;BME280;54864;52.002;5.468;2023-02-10T04:59:55;103510.31;;;1.56;78.01
68075;BME280;54864;52.002;5.468;2023-02-10T05:00:55;103517.22;;;1.55;77.98
68075;BME280;54864;52.002;5.468;2023-02-10T05:01:57;103516.28;;;1.53;78.41
68075;BME280;54864;52.002;5.468;2023-02-10T05:03:00;103506.66;;;1.51;78.38
68075;BME280;54864;52.002;5.468;2023-02-10T05:04:02;103514.41;;;1.49;78.39
68075;BME280;54864;52.002;5.468;2023-02-10T05:05:05;103509.31;;;1.52;78.28
68075;BME280;54864;52.002;5.468;2023-02-10T05:06:09;103503.13;;;1.49;78.26
68075;BME280;54864;52.002;5.468;2023-02-10T05:07:10;103497.88;;;1.47;78.42
68075;BME280;54864;52.002;5.468;2023-02-10T05:08:12;103498.88;;;1.51;78.79
68075;BME280;54864;52.002;5.468;2023-02-10T05:09:14;103500.63;;;1.52;78.34
68075;BME280;54864;52.002;5.468;2023-02-10T05:10:15;103490.28;;;1.53;78.41
68075;BME280;54864;52.002;5.468;2023-02-10T05:11:17;103489.41;;;1.53;78.70
68075;BME280;54864;52.002;5.468;2023-02-10T05:12:19;103483.31;;;1.52;78.53
68075;BME280;54864;52.002;5.468;2023-02-10T05:13:20;103483.44;;;1.55;78.37
68075;BME280;54864;52.002;5.468;2023-02-10T05:14:22;103479.94;;;1.55;78.41
68075;BME280;54864;52.002;5.468;2023-02-10T05:15:23;103481.63;;;1.53;78.56
68075;BME280;54864;52.002;5.468;2023-02-10T05:16:25;103483.31;;;1.52;78.65
68075;BME280;54864;52.002;5.468;2023-02-10T05:17:25;103482.44;;;1.52;78.53
68075;BME280;54864;52.002;5.468;2023-02-10T05:18:28;103482.59;;;1.56;78.57
68075;BME280;54864;52.002;5.468;2023-02-10T05:19:29;103477.34;;;1.55;78.42
68075;BME280;54864;52.002;5.468;2023-02-10T05:20:32;103485.94;;;1.52;78.21
68075;BME280;54864;52.002;5.468;2023-02-10T05:21:33;103490.25;;;1.52;78.66
68075;BME280;54864;52.002;5.468;2023-02-10T05:22:35;103487.69;;;1.53;78.59
68075;BME280;54864;52.002;5.468;2023-02-10T05:23:36;103488.53;;;1.52;78.81
68075;BME280;54864;52.002;5.468;2023-02-10T05:24:38;103499.88;;;1.54;78.45
68075;BME280;54864;52.002;5.468;2023-02-10T05:25:39;103500.75;;;1.55;78.44
68075;BME280;54864;52.002;5.468;2023-02-10T05:26:41;103498.34;;;1.61;78.40
68075;BME280;54864;52.002;5.468;2023-02-10T05:27:42;103496.53;;;1.58;78.36
68075;BME280;54864;52.002;5.468;2023-02-10T05:28:43;103493.00;;;1.56;78.28
68075;BME280;54864;52.002;5.468;2023-02-10T05:29:45;103493.06;;;1.58;78.28
68075;BME280;54864;52.002;5.468;2023-02-10T05:30:47;103497.38;;;1.57;78.10
68075;BME280;54864;52.002;5.468;2023-02-10T05:31:49;103492.91;;;1.53;78.34
68075;BME280;54864;52.002;5.468;2023-02-10T05:32:49;103497.22;;;1.53;78.31
68075;BME280;54864;52.002;5.468;2023-02-10T05:33:51;103502.47;;;1.54;78.06
68075;BME280;54864;52.002;5.468;2023-02-10T05:34:53;103505.16;;;1.57;77.99
68075;BME280;54864;52.002;5.468;2023-02-10T05:35:56;103505.06;;;1.54;77.99